FLI160 ZGUH-ZGNT
Flight info
| Callsign | FLI160 |
|---|---|
| Flight time | N/A |
| Altitude | 2000 |
| Route | PEXEL SHK |
| Aircraft | H160/L-SBDGRY/S |
Departure
| Time | N/A |
|---|---|
| Airport | ZGUH |
Arrival
| Time | 2026-04-15 06:37 |
|---|---|
| Airport | Shenzhen Nantou Heliport (ZGNT) |
| Time | Latitude | Longitude | Altitude | Speed | Heading |
|---|---|---|---|---|---|
| 2026-04-15 06:09 | 22.25147 | 113.58927 | 15 ft | 0 kts | 242° |
| 2026-04-15 06:20 | 22.25149 | 113.58925 | 15 ft | 3 kts | 320° |
| 2026-04-15 06:20 | 22.25200 | 113.58921 | 14 ft | 9 kts | 343° |
| 2026-04-15 06:21 | 22.25261 | 113.58895 | 15 ft | 10 kts | 341° |
| 2026-04-15 06:21 | 22.25333 | 113.58893 | 13 ft | 10 kts | 112° |
| 2026-04-15 06:21 | 22.25342 | 113.58956 | 10 ft | 11 kts | 67° |
| 2026-04-15 06:21 | 22.25311 | 113.58993 | 11 ft | 0 kts | 167° |
| 2026-04-15 06:22 | 22.25309 | 113.58993 | 11 ft | 1 kts | 167° |
| 2026-04-15 06:22 | 22.25328 | 113.58996 | 20 ft | 2 kts | 167° |
| 2026-04-15 06:22 | 22.25280 | 113.59005 | 31 ft | 26 kts | 167° |
| 2026-04-15 06:22 | 22.24940 | 113.59109 | 55 ft | 68 kts | 165° |
| 2026-04-15 06:23 | 22.24691 | 113.59422 | 327 ft | 63 kts | 95° |
| 2026-04-15 06:23 | 22.25021 | 113.59691 | 574 ft | 67 kts | 351° |
| 2026-04-15 06:23 | 22.25506 | 113.59626 | 864 ft | 77 kts | 354° |
| 2026-04-15 06:23 | 22.26089 | 113.59553 | 948 ft | 91 kts | 351° |
| 2026-04-15 06:24 | 22.26736 | 113.59413 | 973 ft | 97 kts | 349° |
| 2026-04-15 06:24 | 22.27387 | 113.59487 | 1058 ft | 97 kts | 23° |
| 2026-04-15 06:24 | 22.28107 | 113.59801 | 1388 ft | 127 kts | 27° |
| 2026-04-15 06:24 | 22.28937 | 113.60164 | 1771 ft | 128 kts | 27° |
| 2026-04-15 06:25 | 22.29770 | 113.60525 | 1916 ft | 130 kts | 26° |
| 2026-04-15 06:25 | 22.30608 | 113.60882 | 1958 ft | 132 kts | 23° |
| 2026-04-15 06:25 | 22.31554 | 113.61257 | 1973 ft | 151 kts | 23° |
| 2026-04-15 06:25 | 22.32527 | 113.61641 | 1991 ft | 147 kts | 22° |
| 2026-04-15 06:26 | 22.33490 | 113.62018 | 1997 ft | 148 kts | 22° |
| 2026-04-15 06:26 | 22.34125 | 113.62265 | 2000 ft | 146 kts | 21° |
| 2026-04-15 06:26 | 22.35091 | 113.62632 | 2000 ft | 147 kts | 21° |
| 2026-04-15 06:26 | 22.36061 | 113.62998 | 2005 ft | 148 kts | 22° |
| 2026-04-15 06:27 | 22.37021 | 113.63360 | 2005 ft | 144 kts | 22° |
| 2026-04-15 06:27 | 22.37971 | 113.63715 | 2003 ft | 145 kts | 21° |
| 2026-04-15 06:27 | 22.38938 | 113.64074 | 2007 ft | 148 kts | 22° |
| 2026-04-15 06:27 | 22.39903 | 113.64436 | 2009 ft | 145 kts | 22° |
| 2026-04-15 06:28 | 22.40842 | 113.64790 | 2005 ft | 145 kts | 20° |
| 2026-04-15 06:28 | 22.41706 | 113.65358 | 2005 ft | 143 kts | 56° |
| 2026-04-15 06:28 | 22.42182 | 113.66259 | 2005 ft | 139 kts | 72° |
| 2026-04-15 06:28 | 22.42533 | 113.67226 | 2009 ft | 136 kts | 79° |
| 2026-04-15 06:29 | 22.42840 | 113.68172 | 2005 ft | 134 kts | 78° |
| 2026-04-15 06:29 | 22.43140 | 113.69125 | 2007 ft | 132 kts | 79° |
| 2026-04-15 06:29 | 22.43433 | 113.70065 | 2000 ft | 133 kts | 77° |
| 2026-04-15 06:29 | 22.43735 | 113.71025 | 2003 ft | 135 kts | 81° |
| 2026-04-15 06:30 | 22.44038 | 113.71996 | 2002 ft | 138 kts | 80° |
| 2026-04-15 06:30 | 22.44342 | 113.72976 | 2006 ft | 138 kts | 81° |
| 2026-04-15 06:30 | 22.44644 | 113.73965 | 2007 ft | 137 kts | 79° |
| 2026-04-15 06:30 | 22.44943 | 113.74946 | 2001 ft | 137 kts | 79° |
| 2026-04-15 06:31 | 22.45239 | 113.75914 | 1999 ft | 135 kts | 79° |
| 2026-04-15 06:31 | 22.45540 | 113.76891 | 1998 ft | 138 kts | 77° |
| 2026-04-15 06:31 | 22.45844 | 113.77875 | 2002 ft | 138 kts | 78° |
| 2026-04-15 06:31 | 22.46146 | 113.78860 | 2006 ft | 137 kts | 77° |
| 2026-04-15 06:32 | 22.46438 | 113.79821 | 2003 ft | 135 kts | 78° |
| 2026-04-15 06:32 | 22.46736 | 113.80799 | 2000 ft | 135 kts | 76° |
| 2026-04-15 06:32 | 22.47032 | 113.81750 | 2001 ft | 140 kts | 79° |
| 2026-04-15 06:32 | 22.47346 | 113.82770 | 2008 ft | 139 kts | 79° |
| 2026-04-15 06:33 | 22.47646 | 113.83755 | 2007 ft | 136 kts | 78° |
| 2026-04-15 06:33 | 22.47943 | 113.84728 | 2003 ft | 138 kts | 76° |
| 2026-04-15 06:33 | 22.48249 | 113.85726 | 2003 ft | 140 kts | 77° |
| 2026-04-15 06:33 | 22.48553 | 113.86721 | 2006 ft | 138 kts | 78° |
| 2026-04-15 06:34 | 22.48850 | 113.87695 | 2006 ft | 135 kts | 79° |
| 2026-04-15 06:34 | 22.49137 | 113.88655 | 1993 ft | 135 kts | 83° |
| 2026-04-15 06:34 | 22.49486 | 113.89621 | 1978 ft | 143 kts | 62° |
| 2026-04-15 06:34 | 22.50243 | 113.90296 | 2009 ft | 139 kts | 27° |
| 2026-04-15 06:35 | 22.51109 | 113.90657 | 2016 ft | 128 kts | 17° |
| 2026-04-15 06:35 | 22.51933 | 113.90908 | 1954 ft | 118 kts | 12° |
| 2026-04-15 06:35 | 22.52704 | 113.91122 | 1743 ft | 110 kts | 14° |
| 2026-04-15 06:35 | 22.53415 | 113.91309 | 1567 ft | 101 kts | 14° |
| 2026-04-15 06:36 | 22.54074 | 113.91471 | 1509 ft | 94 kts | 16° |
| 2026-04-15 06:36 | 22.54649 | 113.91644 | 1323 ft | 79 kts | 21° |
| 2026-04-15 06:36 | 22.55157 | 113.91897 | 1110 ft | 74 kts | 62° |
| 2026-04-15 06:36 | 22.55258 | 113.92342 | 959 ft | 59 kts | 103° |
| 2026-04-15 06:37 | 22.55307 | 113.92817 | 701 ft | 60 kts | 63° |
| 2026-04-15 06:37 | 22.55633 | 113.92960 | 403 ft | 50 kts | 327° |
| 2026-04-15 06:37 | 22.55777 | 113.92869 | 362 ft | 1 kts | 290° |
| 2026-04-15 06:37 | 22.55772 | 113.92897 | 254 ft | 6 kts | 296° |
| 2026-04-15 06:38 | 22.55778 | 113.92871 | 147 ft | 3 kts | 295° |
| 2026-04-15 06:38 | 22.55788 | 113.92851 | 119 ft | 3 kts | 294° |
| 2026-04-15 06:38 | 22.55799 | 113.92811 | 104 ft | 0 kts | 294° |
| 2026-04-15 06:38 | 22.55806 | 113.92777 | 98 ft | 5 kts | 295° |
| 2026-04-15 06:39 | 22.55822 | 113.92736 | 94 ft | 9 kts | 292° |
| 2026-04-15 06:39 | 22.55842 | 113.92672 | 94 ft | 9 kts | 289° |
| 2026-04-15 06:39 | 22.55861 | 113.92609 | 94 ft | 9 kts | 291° |
| 2026-04-15 06:39 | 22.55879 | 113.92550 | 95 ft | 8 kts | 283° |
| 2026-04-15 06:40 | 22.55913 | 113.92501 | 94 ft | 10 kts | 349° |
| 2026-04-15 06:40 | 22.55977 | 113.92519 | 93 ft | 8 kts | 36° |
| 2026-04-15 06:40 | 22.55971 | 113.92546 | 93 ft | 6 kts | 177° |
| 2026-04-15 06:40 | 22.55950 | 113.92543 | 93 ft | 0 kts | 195° |